createdAt,value
2022-11-21T00:01:25.796Z,96562.00
2022-11-21T00:05:29.522Z,96575.00
2022-11-21T00:09:32.550Z,96581.00
2022-11-21T00:13:33.577Z,96584.00
2022-11-21T00:17:34.742Z,96571.00
2022-11-21T00:21:36.338Z,96575.00
2022-11-21T00:25:38.269Z,96578.00
2022-11-21T00:29:39.434Z,96580.00
2022-11-21T00:33:40.466Z,96568.00
2022-11-21T00:37:41.711Z,96573.00
2022-11-21T00:41:42.724Z,96580.00
2022-11-21T00:45:43.883Z,96576.00
2022-11-21T00:49:44.911Z,96571.00
2022-11-21T00:53:46.039Z,96546.00
2022-11-21T00:57:46.982Z,96568.00
2022-11-21T01:01:48.121Z,96574.00
2022-11-21T01:05:49.269Z,96559.00
2022-11-21T01:09:50.302Z,96549.00
2022-11-21T01:13:54.471Z,96546.00
2022-11-21T01:17:55.483Z,96554.00
2022-11-21T01:21:56.627Z,96527.00
2022-11-21T01:26:02.598Z,96546.00
2022-11-21T01:30:04.569Z,96553.00
2022-11-21T01:34:05.693Z,96552.00
2022-11-21T01:38:06.702Z,96554.00
2022-11-21T01:42:11.141Z,96560.00
2022-11-21T01:46:14.708Z,96555.00
2022-11-21T01:50:16.220Z,96545.00
2022-11-21T01:54:36.488Z,96546.00
2022-11-21T01:58:39.737Z,96542.00
2022-11-21T02:02:45.855Z,96554.00
2022-11-21T02:06:46.847Z,96560.00
2022-11-21T02:10:58.385Z,96562.00
2022-11-21T02:14:59.987Z,96561.00
2022-11-21T02:19:01.398Z,96560.00
2022-11-21T02:23:22.848Z,96558.00
2022-11-21T02:27:24.009Z,96543.00
2022-11-21T02:31:25.287Z,96559.00
2022-11-21T02:35:26.474Z,96565.00
2022-11-21T02:39:34.153Z,96572.00
2022-11-21T02:43:48.068Z,96577.00
2022-11-21T02:47:52.654Z,96591.00
2022-11-21T02:51:54.130Z,96586.00
2022-11-21T02:55:55.641Z,96586.00
2022-11-21T02:59:56.775Z,96578.00
2022-11-21T03:03:58.938Z,96582.00
2022-11-21T03:08:00.059Z,96583.00
2022-11-21T03:12:09.350Z,96591.00
2022-11-21T03:16:10.594Z,96584.00
2022-11-21T03:20:11.621Z,96601.00
2022-11-21T03:24:12.610Z,96602.00
2022-11-21T03:28:13.765Z,96598.00
2022-11-21T03:32:14.953Z,96598.00
2022-11-21T03:36:15.972Z,96606.00
2022-11-21T03:40:17.342Z,96607.00
2022-11-21T03:44:18.507Z,96615.00
2022-11-21T03:48:19.625Z,96609.00
2022-11-21T03:52:21.430Z,96618.00
2022-11-21T03:56:22.406Z,96624.00
2022-11-21T04:00:23.842Z,96621.00
2022-11-21T04:04:25.111Z,96628.00
2022-11-21T04:08:26.945Z,96630.00
2022-11-21T04:12:27.889Z,96618.00
2022-11-21T04:16:29.002Z,96627.00
2022-11-21T04:20:29.996Z,96617.00
2022-11-21T04:24:31.136Z,96615.00
2022-11-21T04:28:32.418Z,96623.00
2022-11-21T04:32:33.543Z,96619.00
2022-11-21T04:36:34.569Z,96617.00
2022-11-21T04:40:36.632Z,96626.00
2022-11-21T04:44:37.822Z,96620.00
2022-11-21T04:48:40.427Z,96624.00
2022-11-21T04:52:42.092Z,96627.00
2022-11-21T04:56:43.089Z,96637.00
2022-11-21T05:00:44.203Z,96626.00
2022-11-21T05:04:45.421Z,96493.00
2022-11-21T05:08:51.459Z,96633.00
2022-11-21T05:13:13.192Z,96638.00
2022-11-21T05:17:14.416Z,96641.00
2022-11-21T05:21:15.384Z,96644.00
2022-11-21T05:25:16.355Z,96639.00
2022-11-21T05:29:17.318Z,96649.00
2022-11-21T05:33:18.310Z,96642.00
2022-11-21T05:37:22.559Z,96654.00
2022-11-21T05:41:23.548Z,96661.00
2022-11-21T05:45:24.510Z,96655.00
2022-11-21T05:49:25.825Z,96666.00
2022-11-21T05:53:26.972Z,96649.00
2022-11-21T05:57:27.912Z,96643.00
2022-11-21T06:01:47.195Z,96639.00
2022-11-21T06:05:48.323Z,96639.00
2022-11-21T06:09:49.465Z,96621.00
2022-11-21T06:13:52.139Z,96632.00
2022-11-21T06:17:53.111Z,96636.00
2022-11-21T06:21:54.072Z,96628.00
2022-11-21T06:25:59.445Z,96642.00
2022-11-21T06:30:00.476Z,96644.00
2022-11-21T06:34:01.781Z,96623.00
2022-11-21T06:38:02.768Z,96646.00
2022-11-21T06:42:04.182Z,96634.00
2022-11-21T06:46:05.421Z,96632.00
2022-11-21T06:50:07.473Z,96649.00
2022-11-21T06:54:10.601Z,96650.00
2022-11-21T06:58:11.469Z,96659.00
2022-11-21T07:02:12.940Z,96662.00
2022-11-21T07:06:14.654Z,96659.00
2022-11-21T07:10:15.888Z,96667.00
2022-11-21T07:14:17.469Z,96662.00
2022-11-21T07:18:20.259Z,96661.00
2022-11-21T07:22:21.246Z,96678.00
2022-11-21T07:26:22.392Z,96678.00
2022-11-21T07:30:23.335Z,96667.00
2022-11-21T07:34:24.318Z,96675.00
2022-11-21T07:38:26.139Z,96680.00
2022-11-21T07:42:27.122Z,96682.00
2022-11-21T07:46:28.347Z,96690.00
2022-11-21T07:50:29.804Z,96696.00
2022-11-21T07:54:30.761Z,96695.00
2022-11-21T07:58:31.902Z,96696.00
2022-11-21T08:02:33.245Z,96685.00
2022-11-21T08:06:34.651Z,96681.00
2022-11-21T08:10:43.849Z,96686.00
2022-11-21T08:14:44.927Z,96698.00
2022-11-21T08:18:46.060Z,96685.00
2022-11-21T08:22:47.068Z,96687.00
2022-11-21T08:26:48.863Z,96683.00
2022-11-21T08:30:50.019Z,96684.00
2022-11-21T08:34:51.167Z,96685.00
2022-11-21T08:38:52.320Z,96684.00
2022-11-21T08:43:07.684Z,96690.00
2022-11-21T08:47:08.836Z,96675.00
2022-11-21T08:51:10.095Z,96682.00
2022-11-21T08:55:11.386Z,96680.00
2022-11-21T08:59:12.517Z,96673.00
2022-11-21T09:03:16.741Z,96666.00
2022-11-21T09:07:16.690Z,96657.00
2022-11-21T09:11:18.048Z,96660.00
2022-11-21T09:15:40.955Z,96654.00
2022-11-21T09:19:42.077Z,96673.00
2022-11-21T09:23:43.300Z,96676.00
2022-11-21T09:27:44.307Z,96668.00
2022-11-21T09:31:46.133Z,96671.00
2022-11-21T09:35:48.086Z,96675.00
2022-11-21T09:39:49.290Z,96679.00
2022-11-21T09:43:56.903Z,96670.00
2022-11-21T09:47:58.422Z,96677.00
2022-11-21T09:52:00.391Z,96676.00
2022-11-21T09:56:08.239Z,96672.00
2022-11-21T10:00:16.283Z,96665.00
2022-11-21T10:04:17.631Z,96661.00
2022-11-21T10:08:30.273Z,96653.00
2022-11-21T10:12:51.934Z,96644.00
2022-11-21T10:17:01.086Z,96648.00
2022-11-21T10:21:26.998Z,96642.00
2022-11-21T10:25:31.990Z,96644.00
2022-11-21T10:29:52.914Z,96637.00
2022-11-21T10:33:56.407Z,96636.00
2022-11-21T10:38:02.312Z,96618.00
2022-11-21T10:42:24.216Z,96618.00
2022-11-21T10:46:22.269Z,96619.00
2022-11-21T10:50:50.472Z,96604.00
2022-11-21T10:55:07.507Z,96585.00
2022-11-21T10:59:14.877Z,96575.00
2022-11-21T11:03:17.433Z,96587.00
2022-11-21T11:07:27.768Z,96590.00
2022-11-21T11:11:31.438Z,96591.00
2022-11-21T11:15:32.497Z,96568.00
2022-11-21T11:19:39.934Z,96566.00
2022-11-21T11:23:36.780Z,96579.00
2022-11-21T11:27:38.166Z,96578.00
2022-11-21T11:31:43.742Z,96558.00
2022-11-21T11:35:47.070Z,96556.00
2022-11-21T11:40:00.992Z,96552.00
2022-11-21T11:44:24.372Z,96552.00
2022-11-21T11:48:28.605Z,96539.00
2022-11-21T11:52:33.811Z,96530.00
2022-11-21T11:56:37.906Z,96535.00
2022-11-21T12:00:51.928Z,96534.00
2022-11-21T12:05:09.177Z,96522.00
2022-11-21T12:09:27.700Z,96510.00
2022-11-21T12:13:30.819Z,96506.00
2022-11-21T12:17:44.990Z,96501.00
2022-11-21T12:21:46.138Z,96496.00
2022-11-21T12:26:10.805Z,96483.00
2022-11-21T12:30:36.786Z,96480.00
2022-11-21T12:34:53.649Z,96474.00
2022-11-21T12:39:08.659Z,96457.00
2022-11-21T12:43:25.616Z,96454.00
2022-11-21T12:47:38.358Z,96451.00
2022-11-21T12:52:13.749Z,96455.00
2022-11-21T12:56:22.112Z,96455.00
2022-11-21T13:00:51.406Z,96450.00
2022-11-21T13:04:55.782Z,96442.00
2022-11-21T13:09:01.393Z,96443.00
2022-11-21T13:13:09.359Z,96440.00
2022-11-21T13:17:16.901Z,96428.00
2022-11-21T13:21:43.978Z,96433.00
2022-11-21T13:25:47.249Z,96427.00
2022-11-21T13:30:14.547Z,96425.00
2022-11-21T13:34:34.796Z,96413.00
2022-11-21T13:38:54.975Z,96404.00
2022-11-21T13:43:36.189Z,96394.00
2022-11-21T13:47:46.927Z,96390.00
2022-11-21T13:51:49.661Z,96390.00
2022-11-21T13:56:00.682Z,96381.00
2022-11-21T14:00:06.928Z,96387.00
2022-11-21T14:04:20.625Z,96381.00
2022-11-21T14:08:24.668Z,96359.00
2022-11-21T14:12:35.220Z,96359.00
2022-11-21T14:16:47.042Z,96359.00
2022-11-21T14:20:56.729Z,96345.00
2022-11-21T14:24:59.099Z,96336.00
2022-11-21T14:29:22.417Z,96330.00
2022-11-21T14:33:33.212Z,96326.00
2022-11-21T14:37:35.620Z,96318.00
2022-11-21T14:41:38.811Z,96314.00
2022-11-21T14:45:43.823Z,96310.00
2022-11-21T14:49:52.263Z,96302.00
2022-11-21T14:53:53.849Z,96300.00
2022-11-21T14:57:57.870Z,96291.00
2022-11-21T15:02:04.933Z,96291.00
2022-11-21T15:06:09.901Z,96297.00
2022-11-21T15:10:31.668Z,96292.00
2022-11-21T15:14:31.688Z,96278.00
2022-11-21T15:18:33.396Z,96270.00
2022-11-21T15:22:40.629Z,96243.00
2022-11-21T15:26:42.166Z,96220.00
2022-11-21T15:30:44.782Z,96220.00
2022-11-21T15:34:47.206Z,96217.00
2022-11-21T15:38:56.654Z,96193.00
2022-11-21T15:42:58.330Z,96184.00
2022-11-21T15:46:59.310Z,96216.00
2022-11-21T15:51:00.262Z,96173.00
2022-11-21T15:55:01.219Z,96170.00
2022-11-21T15:59:02.630Z,96162.00
2022-11-21T16:03:03.631Z,96159.00
2022-11-21T16:07:04.656Z,96154.00
2022-11-21T16:11:06.105Z,96133.00
2022-11-21T16:15:08.266Z,96116.00
2022-11-21T16:19:11.087Z,96122.00
2022-11-21T16:23:12.122Z,96120.00
2022-11-21T16:27:13.212Z,96112.00
2022-11-21T16:31:19.897Z,96095.00
2022-11-21T16:35:22.254Z,96101.00
2022-11-21T16:39:23.313Z,96091.00
2022-11-21T16:43:25.330Z,96077.00
2022-11-21T16:47:48.999Z,95532.00
2022-11-21T16:51:49.313Z,96055.00
2022-11-21T16:55:54.091Z,96048.00
2022-11-21T16:59:57.719Z,96030.00
2022-11-21T17:03:58.446Z,96031.00
2022-11-21T17:07:59.415Z,96020.00
2022-11-21T17:12:00.563Z,96013.00
2022-11-21T17:16:06.505Z,96022.00
2022-11-21T17:20:09.599Z,96024.00
2022-11-21T17:24:13.051Z,96023.00
2022-11-21T17:28:14.216Z,96022.00
2022-11-21T17:32:16.293Z,96011.00
2022-11-21T17:36:19.865Z,96005.00
2022-11-21T17:40:20.973Z,96007.00
2022-11-21T17:44:22.030Z,96010.00
2022-11-21T17:48:23.160Z,96017.00
2022-11-21T17:52:24.280Z,96014.00
2022-11-21T17:56:29.831Z,96000.00
2022-11-21T18:00:30.850Z,95987.00
2022-11-21T18:04:33.806Z,95973.00
2022-11-21T18:08:37.447Z,95961.00
2022-11-21T18:12:38.477Z,95962.00
2022-11-21T18:16:42.727Z,95950.00
2022-11-21T18:20:43.880Z,95955.00
2022-11-21T18:24:45.057Z,95949.00
2022-11-21T18:28:57.311Z,95936.00
2022-11-21T18:32:51.645Z,95958.00
2022-11-21T18:36:53.677Z,95952.00
2022-11-21T18:40:55.990Z,95941.00
2022-11-21T18:44:56.973Z,95947.00
2022-11-21T18:49:05.245Z,95977.00
2022-11-21T18:53:01.857Z,95973.00
2022-11-21T18:57:03.285Z,95985.00
2022-11-21T19:01:07.713Z,95998.00
2022-11-21T19:05:09.221Z,95996.00
2022-11-21T19:09:11.097Z,95995.00
2022-11-21T19:13:12.307Z,95986.00
2022-11-21T19:17:13.380Z,95984.00
2022-11-21T19:21:15.048Z,95980.00
2022-11-21T19:25:16.147Z,95962.00
2022-11-21T19:29:18.000Z,95960.00
2022-11-21T19:33:19.137Z,95955.00
2022-11-21T19:37:20.358Z,95953.00
2022-11-21T19:41:25.339Z,95940.00
2022-11-21T19:45:26.471Z,95935.00
2022-11-21T19:49:27.980Z,95929.00
2022-11-21T19:53:35.415Z,95920.00
2022-11-21T19:57:36.769Z,95906.00
2022-11-21T20:01:38.364Z,95899.00
2022-11-21T20:05:39.699Z,95894.00
2022-11-21T20:09:42.031Z,95886.00
2022-11-21T20:13:44.787Z,95874.00
2022-11-21T20:17:50.012Z,95869.00
2022-11-21T20:21:52.249Z,95853.00
2022-11-21T20:25:53.301Z,95843.00
2022-11-21T20:29:54.307Z,95838.00
2022-11-21T20:33:57.672Z,95832.00
2022-11-21T20:37:58.712Z,95857.00
2022-11-21T20:42:00.039Z,95832.00
2022-11-21T20:46:09.712Z,95849.00
2022-11-21T20:50:06.363Z,95846.00
2022-11-21T20:54:07.668Z,95848.00
2022-11-21T20:58:08.876Z,95849.00
2022-11-21T21:02:13.110Z,95857.00
2022-11-21T21:06:15.837Z,95848.00
2022-11-21T21:10:19.166Z,95835.00
2022-11-21T21:14:23.402Z,95828.00
2022-11-21T21:18:24.451Z,95842.00
2022-11-21T21:22:27.065Z,95832.00
2022-11-21T21:26:42.176Z,95834.00
2022-11-21T21:30:40.346Z,95818.00
2022-11-21T21:34:41.376Z,95829.00
2022-11-21T21:38:43.021Z,95832.00
2022-11-21T21:42:44.198Z,95829.00
2022-11-21T21:46:45.366Z,95812.00
2022-11-21T21:50:46.439Z,95817.00
2022-11-21T21:54:48.362Z,95812.00
2022-11-21T21:58:50.477Z,95801.00
2022-11-21T22:02:51.628Z,95800.00
2022-11-21T22:06:53.230Z,95785.00
2022-11-21T22:11:03.774Z,95768.00
2022-11-21T22:15:05.934Z,95778.00
2022-11-21T22:19:07.997Z,95810.00
2022-11-21T22:23:09.004Z,95795.00
2022-11-21T22:27:10.175Z,95794.00
2022-11-21T22:31:13.557Z,95786.00
2022-11-21T22:35:15.024Z,95796.00
2022-11-21T22:39:17.029Z,95783.00
2022-11-21T22:43:18.095Z,95783.00
2022-11-21T22:47:20.695Z,95781.00
2022-11-21T22:51:24.977Z,95785.00
2022-11-21T22:55:26.147Z,95787.00
2022-11-21T22:59:27.163Z,95782.00
2022-11-21T23:03:32.750Z,95778.00
2022-11-21T23:07:33.920Z,95765.00
2022-11-21T23:11:40.466Z,95753.00
2022-11-21T23:15:37.815Z,95753.00
2022-11-21T23:19:38.851Z,95740.00
2022-11-21T23:23:40.526Z,95722.00
2022-11-21T23:27:41.646Z,95716.00
2022-11-21T23:31:42.683Z,95711.00
2022-11-21T23:35:45.116Z,95737.00
2022-11-21T23:39:46.144Z,95739.00
2022-11-21T23:43:47.177Z,95736.00
2022-11-21T23:47:48.307Z,95736.00
2022-11-21T23:51:49.304Z,95725.00
2022-11-21T23:55:50.431Z,95736.00
2022-11-21T23:59:51.528Z,95737.00
